createdAt,value
2018-03-30T00:00:39.521Z,81.40
2018-03-30T00:03:07.033Z,80.91
2018-03-30T00:05:34.443Z,80.47
2018-03-30T00:08:01.845Z,80.13
2018-03-30T00:10:29.307Z,80.01
2018-03-30T00:12:56.713Z,80.35
2018-03-30T00:15:24.121Z,79.99
2018-03-30T00:17:51.531Z,80.33
2018-03-30T00:20:18.948Z,80.33
2018-03-30T00:22:46.390Z,80.08
2018-03-30T00:25:13.764Z,79.89
2018-03-30T00:27:41.164Z,79.82
2018-03-30T00:30:08.579Z,79.99
2018-03-30T00:32:35.976Z,80.14
2018-03-30T00:35:03.399Z,80.04
2018-03-30T00:37:30.815Z,79.45
2018-03-30T00:39:58.230Z,79.40
2018-03-30T00:42:25.673Z,79.23
2018-03-30T00:44:53.120Z,79.20
2018-03-30T00:47:20.588Z,79.48
2018-03-30T00:49:47.994Z,79.61
2018-03-30T00:52:15.405Z,79.57
2018-03-30T00:54:42.806Z,79.72
2018-03-30T00:57:10.230Z,80.33
2018-03-30T00:59:37.629Z,79.80
2018-03-30T01:02:05.042Z,79.64
2018-03-30T01:04:32.445Z,79.81
2018-03-30T01:06:59.858Z,79.78
2018-03-30T01:09:27.281Z,80.48
2018-03-30T01:11:54.701Z,80.31
2018-03-30T01:14:22.106Z,80.90
2018-03-30T01:16:49.801Z,81.01
2018-03-30T01:19:17.192Z,81.18
2018-03-30T01:21:44.601Z,80.62
2018-03-30T01:24:12.029Z,81.22
2018-03-30T01:26:39.429Z,81.45
2018-03-30T01:29:06.846Z,81.13
2018-03-30T01:31:34.257Z,81.42
2018-03-30T01:34:01.678Z,81.49
2018-03-30T01:36:29.097Z,81.58
2018-03-30T01:38:56.493Z,81.65
2018-03-30T01:41:23.922Z,81.18
2018-03-30T01:43:51.325Z,80.92
2018-03-30T01:46:18.810Z,81.19
2018-03-30T01:48:46.219Z,81.18
2018-03-30T01:51:13.616Z,81.24
2018-03-30T01:53:41.033Z,81.27
2018-03-30T01:56:08.433Z,81.50
2018-03-30T01:58:35.848Z,81.29
2018-03-30T02:01:03.281Z,81.14
2018-03-30T02:03:30.705Z,81.19
2018-03-30T02:05:58.110Z,81.46
2018-03-30T02:08:25.773Z,81.51
2018-03-30T02:10:53.189Z,81.71
2018-03-30T02:13:20.580Z,81.40
2018-03-30T02:15:48.025Z,81.87
2018-03-30T02:18:15.430Z,81.88
2018-03-30T02:20:42.853Z,81.98
2018-03-30T02:23:10.253Z,82.21
2018-03-30T02:25:37.670Z,81.71
2018-03-30T02:28:05.076Z,81.56
2018-03-30T02:30:32.502Z,81.46
2018-03-30T02:32:59.906Z,81.53
2018-03-30T02:35:27.367Z,81.12
2018-03-30T02:37:54.793Z,81.34
2018-03-30T02:40:22.211Z,81.60
2018-03-30T02:42:49.645Z,81.52
2018-03-30T02:45:17.067Z,81.73
2018-03-30T02:47:44.521Z,81.27
2018-03-30T02:50:11.923Z,81.57
2018-03-30T02:52:39.345Z,81.79
2018-03-30T02:55:06.746Z,81.47
2018-03-30T02:57:34.239Z,81.34
2018-03-30T03:00:01.583Z,81.51
2018-03-30T03:02:29.112Z,81.54
2018-03-30T03:04:56.527Z,81.91
2018-03-30T03:07:23.929Z,81.68
2018-03-30T03:09:51.341Z,82.07
2018-03-30T03:12:18.742Z,82.08
2018-03-30T03:14:46.154Z,82.19
2018-03-30T03:17:13.585Z,82.32
2018-03-30T03:19:41.009Z,82.16
2018-03-30T03:22:08.419Z,82.26
2018-03-30T03:24:35.831Z,82.14
2018-03-30T03:27:03.242Z,81.82
2018-03-30T03:29:30.941Z,81.71
2018-03-30T03:31:58.349Z,81.45
2018-03-30T03:34:25.776Z,81.33
2018-03-30T03:36:53.345Z,81.25
2018-03-30T03:39:20.848Z,81.12
2018-03-30T03:41:48.229Z,80.93
2018-03-30T03:44:15.662Z,80.86
2018-03-30T03:46:43.089Z,81.13
2018-03-30T03:49:10.510Z,80.96
2018-03-30T03:51:37.930Z,80.83
2018-03-30T03:54:05.336Z,80.82
2018-03-30T03:56:32.765Z,80.70
2018-03-30T03:59:00.206Z,80.47
2018-03-30T04:01:27.606Z,80.29
2018-03-30T04:03:55.021Z,80.24
2018-03-30T04:06:22.442Z,80.22
2018-03-30T04:08:49.856Z,80.19
2018-03-30T04:11:17.266Z,80.14
2018-03-30T04:13:44.673Z,80.11
2018-03-30T04:16:12.089Z,80.02
2018-03-30T04:18:39.504Z,80.11
2018-03-30T04:21:06.925Z,79.95
2018-03-30T04:23:34.345Z,79.92
2018-03-30T04:26:01.749Z,79.89
2018-03-30T04:28:29.165Z,79.84
2018-03-30T04:30:56.589Z,79.89
2018-03-30T04:33:23.985Z,79.78
2018-03-30T04:35:51.432Z,79.78
2018-03-30T04:38:18.873Z,79.83
2018-03-30T04:40:46.309Z,79.79
2018-03-30T04:43:13.720Z,79.89
2018-03-30T04:45:41.133Z,79.91
2018-03-30T04:48:08.553Z,79.65
2018-03-30T04:50:35.957Z,79.82
2018-03-30T04:53:03.375Z,79.78
2018-03-30T04:55:30.827Z,79.71
2018-03-30T04:57:58.226Z,79.80
2018-03-30T05:00:25.645Z,79.66
2018-03-30T05:02:53.059Z,79.67
2018-03-30T05:05:20.713Z,79.44
2018-03-30T05:07:48.124Z,79.19
2018-03-30T05:10:15.522Z,79.11
2018-03-30T05:12:42.943Z,79.36
2018-03-30T05:15:10.345Z,79.40
2018-03-30T05:17:37.775Z,79.45
2018-03-30T05:20:05.172Z,79.54
2018-03-30T05:22:32.586Z,79.38
2018-03-30T05:24:59.993Z,79.22
2018-03-30T05:27:27.601Z,79.20
2018-03-30T05:29:55.002Z,79.45
2018-03-30T05:32:22.413Z,79.41
2018-03-30T05:34:49.841Z,79.62
2018-03-30T05:37:17.248Z,79.40
2018-03-30T05:39:44.681Z,79.54
2018-03-30T05:42:12.070Z,79.51
2018-03-30T05:44:39.500Z,79.60
2018-03-30T05:47:06.905Z,79.24
2018-03-30T05:49:34.309Z,79.39
2018-03-30T05:52:01.735Z,79.19
2018-03-30T05:54:29.137Z,79.22
2018-03-30T05:56:56.786Z,79.01
2018-03-30T05:59:24.193Z,78.87
2018-03-30T06:01:51.601Z,79.08
2018-03-30T06:04:19.019Z,78.88
2018-03-30T06:06:46.425Z,78.58
2018-03-30T06:09:14.103Z,78.48
2018-03-30T06:11:41.504Z,78.47
2018-03-30T06:14:09.043Z,78.18
2018-03-30T06:16:36.474Z,78.21
2018-03-30T06:19:03.925Z,77.96
2018-03-30T06:21:31.302Z,77.73
2018-03-30T06:23:58.714Z,77.77
2018-03-30T06:26:26.130Z,77.62
2018-03-30T06:28:53.529Z,77.33
2018-03-30T06:31:20.950Z,76.97
2018-03-30T06:33:48.353Z,76.79
2018-03-30T06:36:15.753Z,76.56
2018-03-30T06:38:43.174Z,76.40
2018-03-30T06:41:10.587Z,76.28
2018-03-30T06:43:38.157Z,76.26
2018-03-30T06:46:05.818Z,76.33
2018-03-30T06:48:33.340Z,76.06
2018-03-30T06:51:00.757Z,75.49
2018-03-30T06:53:28.164Z,75.77
2018-03-30T06:55:55.576Z,75.70
2018-03-30T06:58:23.012Z,75.65
2018-03-30T07:00:50.408Z,75.25
2018-03-30T07:03:17.826Z,75.06
2018-03-30T07:05:45.485Z,74.91
2018-03-30T07:08:12.901Z,74.47
2018-03-30T07:10:40.293Z,73.87
2018-03-30T07:13:07.713Z,73.14
2018-03-30T07:15:35.117Z,72.16
2018-03-30T07:18:02.541Z,71.79
2018-03-30T07:20:29.943Z,71.28
2018-03-30T07:22:57.361Z,70.20
2018-03-30T07:25:24.762Z,69.00
2018-03-30T07:27:52.185Z,67.94
2018-03-30T07:30:19.601Z,66.84
2018-03-30T07:32:47.030Z,65.46
2018-03-30T07:35:14.435Z,65.52
2018-03-30T07:37:41.845Z,65.23
2018-03-30T07:40:09.254Z,64.97
2018-03-30T07:42:36.673Z,63.54
2018-03-30T07:45:04.093Z,63.44
2018-03-30T07:47:31.641Z,61.80
2018-03-30T07:49:59.060Z,61.51
2018-03-30T07:52:26.457Z,59.58
2018-03-30T07:54:54.857Z,58.68
2018-03-30T07:57:22.286Z,57.51
2018-03-30T07:59:49.693Z,55.81
2018-03-30T08:02:17.185Z,54.37
2018-03-30T08:04:44.607Z,54.15
2018-03-30T08:07:12.191Z,51.43
2018-03-30T08:09:39.639Z,50.91
2018-03-30T08:12:07.220Z,51.57
2018-03-30T08:14:34.914Z,50.94
2018-03-30T08:17:02.577Z,50.64
2018-03-30T08:19:30.021Z,48.99
2018-03-30T08:21:57.437Z,47.39
2018-03-30T08:24:25.393Z,49.53
2018-03-30T08:26:52.870Z,49.16
2018-03-30T08:29:20.434Z,47.07
2018-03-30T08:31:48.136Z,48.95
2018-03-30T08:34:16.466Z,48.15
2018-03-30T08:36:44.156Z,48.05
2018-03-30T08:39:11.578Z,48.70
2018-03-30T08:41:39.233Z,47.94
2018-03-30T08:44:06.814Z,48.68
2018-03-30T08:46:34.763Z,47.94
2018-03-30T08:49:02.209Z,47.14
2018-03-30T08:51:29.779Z,47.40
2018-03-30T08:53:57.457Z,47.89
2018-03-30T08:56:25.283Z,47.23
2018-03-30T08:58:52.917Z,45.87
2018-03-30T09:01:20.566Z,46.55
2018-03-30T09:03:48.052Z,47.15
2018-03-30T09:06:15.617Z,46.68
2018-03-30T09:08:43.026Z,46.15
2018-03-30T09:11:10.465Z,46.71
2018-03-30T09:13:37.888Z,46.46
2018-03-30T09:16:05.300Z,46.42
2018-03-30T09:18:32.722Z,47.70
2018-03-30T09:21:00.137Z,45.97
2018-03-30T09:23:27.582Z,46.72
2018-03-30T09:25:55.117Z,46.40
2018-03-30T09:28:22.557Z,46.12
2018-03-30T09:30:49.964Z,43.06
2018-03-30T09:33:22.859Z,43.69
2018-03-30T09:35:50.324Z,43.86
2018-03-30T09:38:17.789Z,43.39
2018-03-30T09:40:45.188Z,43.63
2018-03-30T09:43:12.606Z,43.17
2018-03-30T09:45:40.069Z,43.29
2018-03-30T09:48:07.493Z,43.94
2018-03-30T09:50:34.901Z,43.08
2018-03-30T09:53:03.277Z,44.46
2018-03-30T09:55:30.689Z,44.43
2018-03-30T09:57:58.093Z,44.80
2018-03-30T10:00:25.498Z,44.63
2018-03-30T10:02:53.692Z,45.01
2018-03-30T10:05:21.097Z,44.83
2018-03-30T10:07:48.592Z,44.00
2018-03-30T10:10:16.798Z,42.34
2018-03-30T10:12:44.210Z,43.53
2018-03-30T10:15:11.622Z,43.68
2018-03-30T10:17:39.033Z,43.82
2018-03-30T10:20:06.470Z,42.81
2018-03-30T10:22:33.870Z,42.12
2018-03-30T10:25:01.452Z,43.04
2018-03-30T10:27:29.117Z,43.11
2018-03-30T10:29:56.907Z,44.12
2018-03-30T10:32:24.302Z,44.14
2018-03-30T10:34:52.647Z,43.89
2018-03-30T10:37:20.214Z,44.57
2018-03-30T10:39:47.625Z,44.21
2018-03-30T10:42:15.287Z,43.61
2018-03-30T10:44:43.361Z,43.78
2018-03-30T10:47:10.790Z,44.08
2018-03-30T10:49:38.198Z,44.41
2018-03-30T10:52:06.063Z,43.55
2018-03-30T10:54:34.104Z,44.38
2018-03-30T10:57:02.004Z,42.82
2018-03-30T10:59:29.947Z,42.99
2018-03-30T11:01:57.346Z,43.86
2018-03-30T11:04:25.208Z,43.33
2018-03-30T11:06:53.401Z,43.66
2018-03-30T11:09:22.586Z,43.69
2018-03-30T11:11:50.258Z,42.13
2018-03-30T11:14:18.152Z,42.89
2018-03-30T11:16:45.991Z,42.15
2018-03-30T11:19:13.667Z,40.62
2018-03-30T11:21:41.263Z,40.95
2018-03-30T11:24:08.989Z,41.67
2018-03-30T11:26:36.532Z,41.90
2018-03-30T11:29:03.982Z,42.39
2018-03-30T11:31:31.401Z,42.63
2018-03-30T11:33:58.801Z,42.89
2018-03-30T11:36:26.225Z,42.38
2018-03-30T11:38:53.626Z,41.97
2018-03-30T11:41:21.514Z,42.81
2018-03-30T11:43:48.939Z,42.17
2018-03-30T11:46:16.333Z,41.44
2018-03-30T11:48:43.759Z,41.46
2018-03-30T11:51:11.193Z,40.72
2018-03-30T11:53:38.601Z,40.47
2018-03-30T11:56:06.014Z,40.22
2018-03-30T11:58:33.431Z,41.51
2018-03-30T12:01:00.926Z,40.02
2018-03-30T12:03:28.330Z,40.68
2018-03-30T12:05:55.733Z,40.76
2018-03-30T12:08:23.145Z,41.08
2018-03-30T12:10:50.546Z,40.86
2018-03-30T12:13:17.969Z,39.88
2018-03-30T12:15:45.375Z,39.42
2018-03-30T12:18:12.784Z,39.92
2018-03-30T12:20:40.207Z,39.33
2018-03-30T12:23:07.650Z,39.13
2018-03-30T12:25:35.085Z,40.08
2018-03-30T12:28:02.501Z,39.92
2018-03-30T12:30:29.926Z,40.03
2018-03-30T12:32:57.352Z,39.51
2018-03-30T12:35:24.793Z,40.36
2018-03-30T12:37:52.188Z,39.93
2018-03-30T12:40:19.634Z,39.67
2018-03-30T12:42:47.027Z,40.17
2018-03-30T12:45:14.439Z,39.74
2018-03-30T12:47:41.877Z,41.49
2018-03-30T12:50:09.282Z,41.27
2018-03-30T12:52:36.701Z,41.93
2018-03-30T12:55:04.469Z,42.22
2018-03-30T12:57:31.911Z,42.92
2018-03-30T12:59:59.306Z,42.05
2018-03-30T13:02:26.736Z,41.70
2018-03-30T13:04:54.139Z,41.14
2018-03-30T13:07:21.557Z,40.65
2018-03-30T13:09:48.961Z,41.67
2018-03-30T13:12:16.443Z,40.62
2018-03-30T13:14:43.825Z,40.37
2018-03-30T13:17:11.251Z,39.57
2018-03-30T13:19:38.645Z,39.90
2018-03-30T13:22:06.064Z,40.17
2018-03-30T13:24:33.462Z,39.84
2018-03-30T13:27:00.895Z,39.59
2018-03-30T13:29:28.316Z,40.08
2018-03-30T13:31:55.714Z,40.25
2018-03-30T13:34:23.143Z,39.69
2018-03-30T13:36:50.537Z,39.38
2018-03-30T13:39:17.956Z,38.51
2018-03-30T13:41:45.355Z,38.31
2018-03-30T13:44:12.778Z,38.48
2018-03-30T13:46:40.190Z,39.36
2018-03-30T13:49:07.698Z,39.04
2018-03-30T13:51:37.822Z,38.90
2018-03-30T13:54:20.245Z,38.82
2018-03-30T13:56:51.317Z,38.77
2018-03-30T13:59:20.453Z,39.24
2018-03-30T14:01:52.414Z,39.74
2018-03-30T14:04:29.193Z,40.15
2018-03-30T14:07:00.437Z,38.24
2018-03-30T14:09:28.613Z,38.40
2018-03-30T14:14:59.401Z,39.14
2018-03-30T14:23:33.221Z,39.08
2018-03-30T14:26:15.037Z,38.46
2018-03-30T14:28:42.428Z,38.82
2018-03-30T14:31:12.591Z,38.71
2018-03-30T14:33:39.989Z,39.13
2018-03-30T14:36:09.833Z,38.98
2018-03-30T14:38:48.043Z,38.95
2018-03-30T14:41:16.150Z,39.91
2018-03-30T14:43:54.318Z,39.90
2018-03-30T14:46:24.120Z,40.01
2018-03-30T14:48:53.885Z,40.03
2018-03-30T14:51:31.248Z,40.10
2018-03-30T14:54:01.233Z,39.55
2018-03-30T14:56:45.949Z,39.08
2018-03-30T14:59:36.939Z,39.05
2018-03-30T15:02:19.122Z,39.39
2018-03-30T15:04:48.429Z,39.48
2018-03-30T15:07:25.729Z,39.23
2018-03-30T15:10:10.959Z,39.54
2018-03-30T15:12:46.646Z,40.16
2018-03-30T15:15:16.530Z,39.63
2018-03-30T15:17:46.553Z,39.75
2018-03-30T15:20:18.721Z,39.70
2018-03-30T15:22:48.546Z,39.49
2018-03-30T15:25:16.238Z,39.58
2018-03-30T15:27:53.540Z,39.87
2018-03-30T15:30:34.564Z,39.65
2018-03-30T15:33:14.450Z,40.26
2018-03-30T15:35:54.626Z,40.51
2018-03-30T15:38:22.036Z,40.17
2018-03-30T15:40:49.450Z,40.39
2018-03-30T15:43:16.958Z,41.03
2018-03-30T15:45:54.921Z,40.49
2018-03-30T15:48:22.332Z,40.70
2018-03-30T15:50:52.586Z,40.69
2018-03-30T15:53:19.470Z,40.75
2018-03-30T15:55:49.472Z,40.93
2018-03-30T15:58:16.884Z,41.04
2018-03-30T16:00:44.283Z,41.12
2018-03-30T16:03:11.712Z,41.63
2018-03-30T16:05:39.123Z,41.56
2018-03-30T16:08:06.576Z,42.11
2018-03-30T16:10:51.622Z,41.92
2018-03-30T16:13:19.088Z,41.81
2018-03-30T16:15:46.460Z,42.46
2018-03-30T16:18:13.907Z,42.12
2018-03-30T16:20:40.773Z,42.11
2018-03-30T16:23:07.630Z,42.61
2018-03-30T16:25:34.507Z,43.09
2018-03-30T16:28:01.361Z,43.10
2018-03-30T16:30:28.253Z,43.30
2018-03-30T16:32:55.118Z,43.50
2018-03-30T16:35:21.982Z,43.55
2018-03-30T16:37:48.849Z,43.72
2018-03-30T16:40:15.725Z,43.94
2018-03-30T16:42:42.607Z,44.32
2018-03-30T16:45:09.498Z,44.07
2018-03-30T16:47:36.682Z,44.03
2018-03-30T16:50:03.549Z,44.12
2018-03-30T16:52:30.430Z,44.74
2018-03-30T16:54:57.309Z,44.97
2018-03-30T16:57:24.178Z,44.82
2018-03-30T16:59:51.069Z,45.19
2018-03-30T17:02:18.085Z,45.59
2018-03-30T17:04:44.960Z,45.63
2018-03-30T17:07:11.819Z,45.67
2018-03-30T17:09:38.703Z,45.93
2018-03-30T17:12:05.576Z,45.99
2018-03-30T17:14:32.455Z,46.32
2018-03-30T17:16:59.330Z,46.36
2018-03-30T17:19:26.226Z,46.59
2018-03-30T17:21:53.093Z,46.96
2018-03-30T17:24:19.975Z,46.92
2018-03-30T17:26:46.961Z,47.20
2018-03-30T17:29:13.830Z,47.24
2018-03-30T17:31:40.717Z,47.29
2018-03-30T17:34:07.602Z,47.43
2018-03-30T17:36:34.496Z,47.68
2018-03-30T17:39:01.384Z,47.83
2018-03-30T17:41:28.299Z,48.06
2018-03-30T17:43:55.392Z,48.36
2018-03-30T17:46:22.470Z,48.50
2018-03-30T17:48:49.358Z,48.65
2018-03-30T17:51:16.402Z,48.63
2018-03-30T17:53:43.266Z,48.82
2018-03-30T17:56:10.158Z,48.93
2018-03-30T17:58:37.041Z,49.36
2018-03-30T18:01:03.926Z,49.25
2018-03-30T18:03:30.814Z,49.36
2018-03-30T18:05:57.687Z,49.50
2018-03-30T18:08:24.581Z,49.53
2018-03-30T18:10:51.474Z,49.75
2018-03-30T18:13:18.365Z,49.75
2018-03-30T18:15:45.241Z,49.98
2018-03-30T18:18:12.142Z,50.15
2018-03-30T18:20:39.010Z,50.21
2018-03-30T18:23:06.136Z,50.34
2018-03-30T18:25:33.062Z,50.45
2018-03-30T18:28:00.028Z,50.73
2018-03-30T18:30:26.930Z,50.85
2018-03-30T18:32:53.886Z,50.99
2018-03-30T18:35:20.778Z,51.33
2018-03-30T18:37:47.724Z,51.44
2018-03-30T18:40:14.642Z,51.72
2018-03-30T18:42:41.559Z,51.96
2018-03-30T18:45:08.421Z,52.34
2018-03-30T18:47:35.300Z,52.49
2018-03-30T18:50:02.210Z,52.59
2018-03-30T18:52:29.078Z,52.85
2018-03-30T18:54:55.966Z,53.10
2018-03-30T18:57:22.870Z,53.26
2018-03-30T18:59:49.898Z,53.52
2018-03-30T19:02:16.833Z,53.65
2018-03-30T19:04:43.680Z,53.85
2018-03-30T19:07:10.569Z,54.37
2018-03-30T19:09:37.437Z,54.22
2018-03-30T19:12:04.332Z,54.32
2018-03-30T19:14:31.228Z,54.48
2018-03-30T19:16:58.119Z,54.61
2018-03-30T19:19:24.998Z,54.67
2018-03-30T19:21:51.905Z,54.87
2018-03-30T19:24:18.814Z,55.06
2018-03-30T19:26:45.691Z,55.04
2018-03-30T19:29:12.563Z,55.19
2018-03-30T19:31:39.451Z,55.38
2018-03-30T19:34:06.348Z,55.57
2018-03-30T19:36:33.346Z,55.61
2018-03-30T19:39:00.230Z,55.75
2018-03-30T19:41:27.106Z,55.90
2018-03-30T19:43:54.001Z,56.28
2018-03-30T19:46:20.889Z,56.25
2018-03-30T19:48:47.777Z,56.41
2018-03-30T19:51:14.655Z,56.61
2018-03-30T19:53:41.521Z,56.73
2018-03-30T19:56:08.407Z,56.86
2018-03-30T19:58:35.401Z,56.86
2018-03-30T20:01:02.269Z,56.89
2018-03-30T20:03:29.138Z,57.00
2018-03-30T20:05:56.029Z,57.17
2018-03-30T20:08:22.901Z,57.08
2018-03-30T20:10:49.910Z,57.10
2018-03-30T20:13:16.794Z,57.06
2018-03-30T20:15:43.686Z,57.05
2018-03-30T20:18:10.553Z,57.10
2018-03-30T20:20:37.424Z,57.28
2018-03-30T20:23:04.298Z,57.29
2018-03-30T20:25:31.167Z,57.42
2018-03-30T20:27:58.123Z,57.60
2018-03-30T20:30:25.028Z,57.82
2018-03-30T20:32:51.976Z,57.81
2018-03-30T20:35:18.869Z,57.95
2018-03-30T20:37:45.730Z,58.13
2018-03-30T20:40:12.618Z,58.25
2018-03-30T20:42:39.510Z,58.20
2018-03-30T20:45:06.361Z,58.45
2018-03-30T20:47:33.242Z,58.22
2018-03-30T20:50:00.111Z,58.33
2018-03-30T20:52:27.003Z,58.30
2018-03-30T20:54:53.910Z,58.31
2018-03-30T20:57:20.826Z,58.40
2018-03-30T20:59:47.731Z,58.52
2018-03-30T21:02:14.628Z,58.36
2018-03-30T21:04:41.493Z,58.50
2018-03-30T21:07:08.382Z,58.38
2018-03-30T21:09:35.259Z,58.22
2018-03-30T21:12:02.133Z,58.47
2018-03-30T21:14:29.011Z,58.62
2018-03-30T21:16:55.903Z,58.77
2018-03-30T21:19:22.769Z,58.66
2018-03-30T21:21:49.643Z,58.35
2018-03-30T21:24:16.535Z,58.34
2018-03-30T21:26:43.437Z,58.38
2018-03-30T21:29:10.310Z,58.36
2018-03-30T21:31:37.177Z,58.33
2018-03-30T21:34:04.065Z,58.24
2018-03-30T21:36:30.957Z,58.41
2018-03-30T21:38:57.824Z,58.59
2018-03-30T21:41:24.777Z,58.10
2018-03-30T21:43:51.605Z,57.90
2018-03-30T21:46:18.468Z,58.02
2018-03-30T21:48:45.347Z,58.07
2018-03-30T21:51:12.213Z,58.02
2018-03-30T21:53:39.083Z,58.00
2018-03-30T21:56:05.963Z,58.05
2018-03-30T21:58:32.950Z,58.09
2018-03-30T22:00:59.828Z,57.94
2018-03-30T22:03:26.700Z,58.14
2018-03-30T22:05:53.587Z,58.04
2018-03-30T22:08:20.462Z,58.15
2018-03-30T22:10:47.325Z,58.27
2018-03-30T22:13:14.209Z,58.24
2018-03-30T22:15:41.114Z,57.98
2018-03-30T22:18:07.985Z,58.16
2018-03-30T22:20:34.861Z,58.09
2018-03-30T22:23:01.750Z,58.05
2018-03-30T22:25:28.634Z,58.40
2018-03-30T22:27:55.531Z,58.44
2018-03-30T22:30:22.394Z,58.47
2018-03-30T22:32:49.267Z,58.93
2018-03-30T22:35:16.146Z,58.66
2018-03-30T22:37:43.029Z,58.92
2018-03-30T22:40:09.897Z,58.81
2018-03-30T22:42:36.776Z,59.11
2018-03-30T22:45:03.654Z,59.05
2018-03-30T22:47:30.533Z,59.31
2018-03-30T22:49:57.411Z,59.09
2018-03-30T22:52:24.293Z,59.24
2018-03-30T22:54:51.153Z,59.23
2018-03-30T22:57:18.051Z,59.38
2018-03-30T22:59:44.921Z,59.16
2018-03-30T23:02:11.794Z,59.26
2018-03-30T23:04:38.682Z,59.22
2018-03-30T23:07:05.550Z,59.47
2018-03-30T23:09:32.425Z,59.68
2018-03-30T23:11:59.309Z,59.50
2018-03-30T23:14:26.175Z,59.67
2018-03-30T23:16:53.062Z,60.90
2018-03-30T23:19:19.939Z,61.37
2018-03-30T23:21:46.962Z,61.20
2018-03-30T23:24:13.828Z,61.31
2018-03-30T23:26:40.690Z,61.23
2018-03-30T23:29:07.570Z,62.41
2018-03-30T23:31:34.439Z,62.74
2018-03-30T23:34:01.322Z,64.16
2018-03-30T23:36:28.189Z,64.64
2018-03-30T23:38:55.076Z,64.90
2018-03-30T23:41:21.962Z,65.95
2018-03-30T23:43:48.837Z,65.33
2018-03-30T23:46:15.705Z,66.45
2018-03-30T23:48:42.591Z,66.65
2018-03-30T23:51:09.469Z,67.07
2018-03-30T23:53:36.349Z,68.41
2018-03-30T23:56:03.217Z,68.37
2018-03-30T23:58:30.101Z,69.95
